createdAt,value
2016-06-09T00:00:40.657Z,0
2016-06-09T00:01:40.614Z,0
2016-06-09T00:02:40.570Z,0
2016-06-09T00:03:40.714Z,0
2016-06-09T00:04:40.467Z,0
2016-06-09T00:05:44.064Z,0
2016-06-09T00:06:40.379Z,0
2016-06-09T00:07:40.382Z,0
2016-06-09T00:08:43.339Z,0
2016-06-09T00:09:40.232Z,0
2016-06-09T00:10:40.174Z,0
2016-06-09T00:11:43.144Z,0
2016-06-09T00:12:43.304Z,0
2016-06-09T00:13:40.041Z,0
2016-06-09T00:14:40.200Z,0
2016-06-09T00:15:39.969Z,0
2016-06-09T00:16:42.894Z,0
2016-06-09T00:17:39.851Z,0
2016-06-09T00:18:39.962Z,0
2016-06-09T00:19:43.169Z,0
2016-06-09T00:20:42.766Z,0
2016-06-09T00:21:45.691Z,0
2016-06-09T00:22:42.835Z,0
2016-06-09T00:23:42.589Z,0
2016-06-09T00:24:39.512Z,0
2016-06-09T00:25:39.781Z,0
2016-06-09T00:26:39.644Z,0
2016-06-09T00:27:39.569Z,0
2016-06-09T00:28:42.369Z,0
2016-06-09T00:29:39.277Z,0
2016-06-09T00:30:45.250Z,0
2016-06-09T00:31:39.191Z,0
2016-06-09T00:32:42.162Z,0
2016-06-09T00:33:39.915Z,0
2016-06-09T00:34:42.309Z,0
2016-06-09T00:35:48.032Z,0
2016-06-09T00:36:39.159Z,0
2016-06-09T00:37:44.896Z,0
2016-06-09T00:38:41.869Z,0
2016-06-09T00:39:47.824Z,0
2016-06-09T00:40:47.780Z,0
2016-06-09T00:41:41.769Z,0
2016-06-09T00:42:38.709Z,0
2016-06-09T00:43:38.477Z,0
2016-06-09T00:44:38.574Z,0
2016-06-09T00:45:41.811Z,0
2016-06-09T00:46:38.659Z,0
2016-06-09T00:47:41.630Z,0
2016-06-09T00:48:41.930Z,0
2016-06-09T00:49:38.558Z,0
2016-06-09T00:50:38.296Z,0
2016-06-09T00:51:38.253Z,0
2016-06-09T00:52:38.208Z,0
2016-06-09T00:53:38.556Z,0
2016-06-09T00:54:38.152Z,0
2016-06-09T00:55:38.061Z,0
2016-06-09T00:56:38.017Z,0
2016-06-09T00:57:37.958Z,0
2016-06-09T00:58:38.102Z,0
2016-06-09T00:59:38.386Z,0
2016-06-09T01:00:37.811Z,0
2016-06-09T01:01:37.783Z,0
2016-06-09T01:02:37.723Z,0
2016-06-09T01:03:37.382Z,0
2016-06-09T01:04:37.620Z,0
2016-06-09T01:05:37.796Z,0
2016-06-09T01:06:37.532Z,0
2016-06-09T01:07:40.473Z,0
2016-06-09T01:08:37.429Z,0
2016-06-09T01:09:37.401Z,0
2016-06-09T01:10:43.373Z,0
2016-06-09T01:11:43.501Z,0
2016-06-09T01:12:37.301Z,0
2016-06-09T01:13:40.054Z,0
2016-06-09T01:14:40.182Z,0
2016-06-09T01:15:39.998Z,0
2016-06-09T01:16:37.079Z,0
2016-06-09T01:17:40.050Z,0
2016-06-09T01:18:37.570Z,0
2016-06-09T01:19:39.931Z,0
2016-06-09T01:20:36.856Z,0
2016-06-09T01:21:40.095Z,0
2016-06-09T01:22:39.770Z,0
2016-06-09T01:23:36.725Z,0
2016-06-09T01:24:36.385Z,0
2016-06-09T01:25:39.654Z,0
2016-06-09T01:26:39.578Z,0
2016-06-09T01:27:39.627Z,0
2016-06-09T01:28:39.506Z,0
2016-06-09T01:29:37.010Z,0
2016-06-09T01:30:36.606Z,0
2016-06-09T01:31:39.359Z,0
2016-06-09T01:32:39.331Z,0
2016-06-09T01:33:39.663Z,0
2016-06-09T01:34:36.790Z,0
2016-06-09T01:35:39.152Z,0
2016-06-09T01:36:39.109Z,0
2016-06-09T01:37:36.080Z,0
2016-06-09T01:38:36.006Z,0
2016-06-09T01:39:41.993Z,0
2016-06-09T01:40:38.918Z,0
2016-06-09T01:41:36.078Z,0
2016-06-09T01:42:35.815Z,0
2016-06-09T01:43:39.490Z,0
2016-06-09T01:44:35.743Z,0
2016-06-09T01:45:35.684Z,0
2016-06-09T01:46:35.624Z,0
2016-06-09T01:47:35.581Z,0
2016-06-09T01:48:35.225Z,0
2016-06-09T01:49:39.962Z,0
2016-06-09T01:50:35.434Z,0
2016-06-09T01:51:38.437Z,0
2016-06-09T01:52:38.362Z,0
2016-06-09T01:53:38.521Z,0
2016-06-09T01:54:38.273Z,0
2016-06-09T01:55:38.761Z,0
2016-06-09T01:56:38.170Z,0
2016-06-09T01:57:35.111Z,0
2016-06-09T01:58:38.473Z,0
2016-06-09T01:59:38.040Z,0
2016-06-09T02:00:37.964Z,0
2016-06-09T02:01:37.935Z,0
2016-06-09T02:02:43.908Z,0
2016-06-09T02:03:38.677Z,0
2016-06-09T02:04:38.695Z,0
2016-06-09T02:05:34.745Z,0
2016-06-09T02:06:37.701Z,0
2016-06-09T02:07:37.845Z,0
2016-06-09T02:08:34.598Z,0
2016-06-09T02:09:37.523Z,0
2016-06-09T02:10:34.495Z,0
2016-06-09T02:11:37.498Z,0
2016-06-09T02:12:34.829Z,0
2016-06-09T02:13:34.364Z,0
2016-06-09T02:14:37.507Z,0
2016-06-09T02:15:34.276Z,0
2016-06-09T02:16:34.061Z,0
2016-06-09T02:17:34.157Z,0
2016-06-09T02:18:38.691Z,0
2016-06-09T02:19:37.413Z,0
2016-06-09T02:20:37.010Z,0
2016-06-09T02:21:34.168Z,0
2016-06-09T02:22:33.922Z,0
2016-06-09T02:23:33.863Z,0
2016-06-09T02:24:39.866Z,0
2016-06-09T02:25:33.822Z,0
2016-06-09T02:26:33.950Z,0
2016-06-09T02:27:33.719Z,0
2016-06-09T02:28:36.676Z,0
2016-06-09T02:29:33.601Z,0
2016-06-09T02:30:33.541Z,0
2016-06-09T02:31:33.497Z,0
2016-06-09T02:32:39.656Z,0
2016-06-09T02:33:33.253Z,0
2016-06-09T02:34:37.287Z,0
2016-06-09T02:35:33.306Z,0
2016-06-09T02:36:33.465Z,0
2016-06-09T02:37:36.437Z,0
2016-06-09T02:38:33.019Z,0
2016-06-09T02:39:36.115Z,0
2016-06-09T02:40:36.462Z,0
2016-06-09T02:41:39.028Z,0
2016-06-09T02:42:36.187Z,0
2016-06-09T02:43:35.939Z,0
2016-06-09T02:44:33.037Z,0
2016-06-09T02:45:41.867Z,0
2016-06-09T02:46:41.793Z,0
2016-06-09T02:47:35.749Z,0
2016-06-09T02:48:35.564Z,4
2016-06-09T02:49:41.521Z,4
2016-06-09T02:50:41.633Z,4
2016-06-09T02:51:35.746Z,0
2016-06-09T02:52:35.499Z,0
2016-06-09T02:53:32.455Z,4
2016-06-09T02:54:35.692Z,4
2016-06-09T02:55:35.368Z,4
2016-06-09T02:56:32.308Z,4
2016-06-09T02:57:35.248Z,4
2016-06-09T02:58:32.252Z,4
2016-06-09T02:59:32.349Z,8
2016-06-09T03:00:32.116Z,8
2016-06-09T03:01:35.120Z,8
2016-06-09T03:02:41.030Z,8
2016-06-09T03:03:38.001Z,12
2016-06-09T03:04:38.348Z,12
2016-06-09T03:05:31.868Z,16
2016-06-09T03:06:31.839Z,16
2016-06-09T03:07:34.795Z,16
2016-06-09T03:08:37.939Z,20
2016-06-09T03:09:31.536Z,24
2016-06-09T03:10:37.647Z,24
2016-06-09T03:11:37.620Z,28
2016-06-09T03:12:31.545Z,28
2016-06-09T03:13:31.501Z,28
2016-06-09T03:14:31.441Z,28
2016-06-09T03:15:34.398Z,28
2016-06-09T03:16:34.354Z,32
2016-06-09T03:17:34.529Z,32
2016-06-09T03:18:31.391Z,36
2016-06-09T03:19:37.941Z,36
2016-06-09T03:20:34.241Z,36
2016-06-09T03:21:31.119Z,36
2016-06-09T03:22:31.059Z,32
2016-06-09T03:23:31.016Z,44
2016-06-09T03:24:36.987Z,48
2016-06-09T03:25:30.929Z,48
2016-06-09T03:26:33.885Z,52
2016-06-09T03:27:33.981Z,64
2016-06-09T03:28:36.782Z,56
2016-06-09T03:29:30.738Z,60
2016-06-09T03:30:33.678Z,64
2016-06-09T03:31:30.681Z,64
2016-06-09T03:32:30.591Z,76
2016-06-09T03:33:33.953Z,96
2016-06-09T03:34:36.862Z,96
2016-06-09T03:35:39.460Z,96
2016-06-09T03:36:36.603Z,108
2016-06-09T03:37:30.355Z,120
2016-06-09T03:38:30.313Z,144
2016-06-09T03:39:33.659Z,152
2016-06-09T03:40:30.209Z,160
2016-06-09T03:41:30.180Z,156
2016-06-09T03:42:50.215Z,172
2016-06-09T03:43:35.921Z,168
2016-06-09T03:44:33.002Z,192
2016-06-09T03:45:33.396Z,180
2016-06-09T03:46:38.946Z,180
2016-06-09T03:47:30.074Z,196
2016-06-09T03:48:38.874Z,224
2016-06-09T03:49:34.081Z,244
2016-06-09T03:50:32.739Z,264
2016-06-09T03:51:29.992Z,272
2016-06-09T03:52:32.637Z,252
2016-06-09T03:53:29.577Z,224
2016-06-09T03:54:29.720Z,228
2016-06-09T03:55:29.490Z,304
2016-06-09T03:56:29.711Z,372
2016-06-09T03:57:29.417Z,396
2016-06-09T03:58:29.342Z,392
2016-06-09T03:59:32.298Z,396
2016-06-09T04:00:35.286Z,376
2016-06-09T04:01:29.211Z,376
2016-06-09T04:02:29.183Z,408
2016-06-09T04:03:32.140Z,444
2016-06-09T04:04:29.110Z,432
2016-06-09T04:05:32.021Z,472
2016-06-09T04:06:28.820Z,492
2016-06-09T04:07:29.011Z,524
2016-06-09T04:08:28.888Z,588
2016-06-09T04:09:28.829Z,596
2016-06-09T04:10:32.192Z,564
2016-06-09T04:11:28.726Z,548
2016-06-09T04:12:28.510Z,492
2016-06-09T04:13:28.607Z,524
2016-06-09T04:14:28.469Z,628
2016-06-09T04:15:28.864Z,616
2016-06-09T04:16:34.508Z,560
2016-06-09T04:17:31.463Z,568
2016-06-09T04:18:28.388Z,588
2016-06-09T04:19:34.235Z,596
2016-06-09T04:20:28.348Z,596
2016-06-09T04:21:28.256Z,624
2016-06-09T04:22:28.260Z,568
2016-06-09T04:23:28.185Z,668
2016-06-09T04:24:31.016Z,816
2016-06-09T04:25:31.269Z,880
2016-06-09T04:26:31.053Z,936
2016-06-09T04:27:30.963Z,1196
2016-06-09T04:28:33.919Z,1316
2016-06-09T04:29:28.079Z,1328
2016-06-09T04:30:30.816Z,1348
2016-06-09T04:31:48.007Z,1668
2016-06-09T04:32:27.884Z,1556
2016-06-09T04:33:30.685Z,1276
2016-06-09T04:34:27.985Z,1224
2016-06-09T04:35:30.283Z,1264
2016-06-09T04:36:27.522Z,1224
2016-06-09T04:37:33.494Z,1224
2016-06-09T04:38:33.497Z,1172
2016-06-09T04:39:39.421Z,1220
2016-06-09T04:40:30.549Z,1328
2016-06-09T04:41:27.349Z,1420
2016-06-09T04:42:27.274Z,1488
2016-06-09T04:43:39.247Z,1700
2016-06-09T04:44:27.155Z,1792
2016-06-09T04:45:27.111Z,1732
2016-06-09T04:46:27.100Z,1736
2016-06-09T04:47:33.493Z,1624
2016-06-09T04:48:29.995Z,1744
2016-06-09T04:49:27.156Z,1768
2016-06-09T04:50:27.096Z,1652
2016-06-09T04:51:26.865Z,1796
2016-06-09T04:52:29.774Z,1912
2016-06-09T04:53:26.746Z,2152
2016-06-09T04:54:29.905Z,2088
2016-06-09T04:55:29.845Z,2000
2016-06-09T04:56:26.614Z,1964
2016-06-09T04:57:29.556Z,2160
2016-06-09T04:58:26.715Z,1908
2016-06-09T04:59:29.451Z,2052
2016-06-09T05:00:26.467Z,2068
2016-06-09T05:01:29.364Z,2048
2016-06-09T05:02:26.146Z,2096
2016-06-09T05:03:29.449Z,1912
2016-06-09T05:04:29.435Z,1908
2016-06-09T05:05:32.189Z,2064
2016-06-09T05:06:29.098Z,2084
2016-06-09T05:07:29.070Z,2040
2016-06-09T05:08:26.023Z,2084
2016-06-09T05:09:28.998Z,2192
2016-06-09T05:10:26.123Z,2128
2016-06-09T05:11:25.891Z,1936
2016-06-09T05:12:34.836Z,1868
2016-06-09T05:13:28.807Z,2012
2016-06-09T05:14:28.779Z,2036
2016-06-09T05:15:25.701Z,1892
2016-06-09T05:16:25.845Z,1940
2016-06-09T05:17:25.785Z,2156
2016-06-09T05:18:25.585Z,2056
2016-06-09T05:19:25.838Z,1952
2016-06-09T05:20:28.313Z,2008
2016-06-09T05:21:28.441Z,1964
2016-06-09T05:22:28.382Z,2028
2016-06-09T05:23:31.306Z,2196
2016-06-09T05:24:28.278Z,2288
2016-06-09T05:25:31.095Z,2096
2016-06-09T05:26:25.188Z,2160
2016-06-09T05:27:31.148Z,2132
2016-06-09T05:28:25.491Z,2060
2016-06-09T05:29:25.009Z,2128
2016-06-09T05:30:25.044Z,2368
2016-06-09T05:31:28.347Z,2120
2016-06-09T05:32:27.897Z,1928
2016-06-09T05:33:30.837Z,2392
2016-06-09T05:34:24.822Z,2284
2016-06-09T05:35:25.653Z,2120
2016-06-09T05:36:24.719Z,2300
2016-06-09T05:37:27.846Z,1884
2016-06-09T05:38:24.615Z,1824
2016-06-09T05:39:24.399Z,1792
2016-06-09T05:40:27.528Z,1800
2016-06-09T05:41:27.469Z,1876
2016-06-09T05:42:24.409Z,1872
2016-06-09T05:43:24.365Z,1880
2016-06-09T05:44:24.321Z,1836
2016-06-09T05:45:24.262Z,1928
2016-06-09T05:46:27.217Z,1884
2016-06-09T05:47:24.018Z,1996
2016-06-09T05:48:24.130Z,2112
2016-06-09T05:49:27.243Z,2124
2016-06-09T05:50:24.074Z,2284
2016-06-09T05:51:30.221Z,2388
2016-06-09T05:52:29.942Z,2276
2016-06-09T05:53:24.099Z,2592
2016-06-09T05:54:23.867Z,2508
2016-06-09T05:55:26.809Z,2320
2016-06-09T05:56:23.734Z,2148
2016-06-09T05:57:32.724Z,2140
2016-06-09T05:58:29.852Z,2188
2016-06-09T05:59:29.621Z,2420
2016-06-09T06:00:23.777Z,2496
2016-06-09T06:01:26.530Z,2556
2016-06-09T06:02:23.878Z,2380
2016-06-09T06:03:26.442Z,2252
2016-06-09T06:04:26.227Z,2280
2016-06-09T06:05:33.029Z,2088
2016-06-09T06:06:29.345Z,2100
2016-06-09T06:07:26.079Z,2208
2016-06-09T06:08:32.398Z,2352
2016-06-09T06:09:23.148Z,2188
2016-06-09T06:10:31.967Z,2000
2016-06-09T06:11:29.061Z,2064
2016-06-09T06:12:25.986Z,2224
2016-06-09T06:13:25.989Z,2720
2016-06-09T06:14:22.898Z,2684
2016-06-09T06:15:26.073Z,2868
2016-06-09T06:16:22.810Z,3092
2016-06-09T06:17:22.844Z,3092
2016-06-09T06:18:25.738Z,2544
2016-06-09T06:19:32.714Z,3072
2016-06-09T06:20:31.717Z,2876
2016-06-09T06:21:22.654Z,2996
2016-06-09T06:22:22.939Z,3088
2016-06-09T06:23:22.504Z,3044
2016-06-09T06:24:22.273Z,3064
2016-06-09T06:25:22.448Z,3120
2016-06-09T06:26:25.326Z,3244
2016-06-09T06:27:25.297Z,3352
2016-06-09T06:28:25.253Z,3260
2016-06-09T06:29:22.178Z,3324
2016-06-09T06:30:22.135Z,3236
2016-06-09T06:31:22.294Z,3632
2016-06-09T06:32:21.890Z,4008
2016-06-09T06:33:25.003Z,3896
2016-06-09T06:34:21.976Z,3884
2016-06-09T06:35:22.165Z,3808
2016-06-09T06:36:21.872Z,3788
2016-06-09T06:37:24.813Z,3968
2016-06-09T06:38:21.800Z,3996
2016-06-09T06:39:22.225Z,3768
2016-06-09T06:40:24.915Z,3832
2016-06-09T06:41:24.637Z,3692
2016-06-09T06:42:21.656Z,3768
2016-06-09T06:43:29.940Z,4068
2016-06-09T06:44:24.507Z,4108
2016-06-09T06:45:21.321Z,3644
2016-06-09T06:46:21.387Z,3652
2016-06-09T06:47:21.343Z,3212
2016-06-09T06:48:21.300Z,3468
2016-06-09T06:49:24.272Z,3632
2016-06-09T06:50:28.150Z,3832
2016-06-09T06:51:21.215Z,3720
2016-06-09T06:52:24.155Z,3620
2016-06-09T06:53:21.268Z,2876
2016-06-09T06:54:24.037Z,3064
2016-06-09T06:55:20.993Z,3532
2016-06-09T06:56:21.418Z,4076
2016-06-09T06:57:26.936Z,3724
2016-06-09T06:58:20.845Z,3192
2016-06-09T06:59:24.037Z,2800
2016-06-09T07:00:20.759Z,2872
2016-06-09T07:01:23.761Z,3388
2016-06-09T07:02:23.639Z,3588
2016-06-09T07:03:23.455Z,3680
2016-06-09T07:04:20.989Z,3364
2016-06-09T07:05:23.679Z,3196
2016-06-09T07:06:23.480Z,3252
2016-06-09T07:07:20.623Z,3560
2016-06-09T07:08:23.626Z,3364
2016-06-09T07:09:20.348Z,3736
2016-06-09T07:10:20.273Z,3344
2016-06-09T07:11:20.090Z,3048
2016-06-09T07:12:20.045Z,3004
2016-06-09T07:13:23.204Z,2812
2016-06-09T07:14:20.129Z,2684
2016-06-09T07:15:20.102Z,2704
2016-06-09T07:16:20.025Z,2628
2016-06-09T07:17:20.186Z,2580
2016-06-09T07:18:20.156Z,2604
2016-06-09T07:19:20.176Z,2660
2016-06-09T07:20:19.913Z,2696
2016-06-09T07:21:20.307Z,2692
2016-06-09T07:22:20.341Z,2708
2016-06-09T07:23:19.860Z,2740
2016-06-09T07:24:19.629Z,2752
2016-06-09T07:25:22.444Z,2560
2016-06-09T07:26:27.854Z,2924
2016-06-09T07:27:19.639Z,2852
2016-06-09T07:28:19.438Z,2956
2016-06-09T07:29:22.815Z,2956
2016-06-09T07:30:22.398Z,2812
2016-06-09T07:31:18.994Z,2920
2016-06-09T07:32:22.482Z,2828
2016-06-09T07:33:19.141Z,2496
2016-06-09T07:34:19.721Z,2456
2016-06-09T07:35:22.272Z,2564
2016-06-09T07:36:19.306Z,2744
2016-06-09T07:37:19.028Z,3060
2016-06-09T07:38:19.015Z,2992
2016-06-09T07:39:21.815Z,3356
2016-06-09T07:40:18.928Z,3668
2016-06-09T07:41:19.149Z,3812
2016-06-09T07:42:27.809Z,4072
2016-06-09T07:43:18.750Z,4112
2016-06-09T07:44:21.783Z,3952
2016-06-09T07:45:21.928Z,3840
2016-06-09T07:46:18.837Z,3812
2016-06-09T07:47:18.778Z,3740
2016-06-09T07:48:18.515Z,3700
2016-06-09T07:49:18.706Z,3672
2016-06-09T07:50:22.584Z,3376
2016-06-09T07:51:18.602Z,3496
2016-06-09T07:52:21.403Z,3196
2016-06-09T07:53:18.311Z,2952
2016-06-09T07:54:18.080Z,3128
2016-06-09T07:55:18.192Z,3064
2016-06-09T07:56:18.149Z,3004
2016-06-09T07:57:20.996Z,2972
2016-06-09T07:58:21.280Z,2836
2016-06-09T07:59:21.017Z,2724
2016-06-09T08:00:18.349Z,2344
2016-06-09T08:01:18.039Z,2692
2016-06-09T08:02:21.511Z,2440
2016-06-09T08:03:17.686Z,2516
2016-06-09T08:04:17.970Z,2572
2016-06-09T08:05:18.145Z,2476
2016-06-09T08:06:17.899Z,2424
2016-06-09T08:07:17.886Z,2168
2016-06-09T08:08:17.577Z,2144
2016-06-09T08:09:17.814Z,2200
2016-06-09T08:10:17.488Z,2344
2016-06-09T08:11:17.461Z,2364
2016-06-09T08:12:17.402Z,2304
2016-06-09T08:13:17.357Z,2340
2016-06-09T08:14:21.126Z,2320
2016-06-09T08:15:17.472Z,2184
2016-06-09T08:16:20.414Z,2184
2016-06-09T08:17:23.198Z,2116
2016-06-09T08:18:20.404Z,2060
2016-06-09T08:19:17.063Z,2108
2016-06-09T08:20:21.223Z,2164
2016-06-09T08:21:19.991Z,2228
2016-06-09T08:22:16.964Z,2232
2016-06-09T08:23:17.122Z,2180
2016-06-09T08:24:16.860Z,2124
2016-06-09T08:25:22.819Z,2172
2016-06-09T08:26:17.098Z,2244
2016-06-09T08:27:17.566Z,2304
2016-06-09T08:28:23.939Z,2312
2016-06-09T08:29:19.783Z,2304
2016-06-09T08:30:25.796Z,2212
2016-06-09T08:31:16.939Z,2132
2016-06-09T08:32:16.723Z,1968
2016-06-09T08:33:22.913Z,2044
2016-06-09T08:34:16.650Z,2248
2016-06-09T08:35:19.574Z,2188
2016-06-09T08:36:16.958Z,2324
2016-06-09T08:37:16.389Z,2404
2016-06-09T08:38:19.522Z,2488
2016-06-09T08:39:16.452Z,2536
2016-06-09T08:40:19.413Z,2572
2016-06-09T08:41:16.355Z,2528
2016-06-09T08:42:16.158Z,2488
2016-06-09T08:43:16.148Z,2440
2016-06-09T08:44:16.231Z,2400
2016-06-09T08:45:16.016Z,2412
2016-06-09T08:46:16.145Z,2420
2016-06-09T08:47:16.149Z,2404
2016-06-09T08:48:19.091Z,2488
2016-06-09T08:49:15.860Z,2472
2016-06-09T08:50:16.036Z,2896
2016-06-09T08:51:19.695Z,2468
2016-06-09T08:52:15.886Z,2356
2016-06-09T08:53:15.827Z,2392
2016-06-09T08:54:15.816Z,2432
2016-06-09T08:55:18.756Z,2432
2016-06-09T08:56:15.807Z,2452
2016-06-09T08:57:18.887Z,2184
2016-06-09T08:58:15.610Z,2416
2016-06-09T08:59:15.566Z,2504
2016-06-09T09:00:15.787Z,2516
2016-06-09T09:01:18.477Z,2496
2016-06-09T09:02:15.480Z,2512
2016-06-09T09:03:15.624Z,2508
2016-06-09T09:04:18.424Z,2492
2016-06-09T09:05:15.678Z,2472
2016-06-09T09:06:15.400Z,2548
2016-06-09T09:07:15.653Z,2480
2016-06-09T09:08:15.187Z,2500
2016-06-09T09:09:15.830Z,2432
2016-06-09T09:10:15.193Z,2448
2016-06-09T09:11:15.166Z,2184
2016-06-09T09:12:15.027Z,2340
2016-06-09T09:13:15.406Z,2472
2016-06-09T09:14:23.893Z,2288
2016-06-09T09:15:14.896Z,2372
2016-06-09T09:16:21.023Z,2440
2016-06-09T09:17:14.590Z,2416
2016-06-09T09:18:14.858Z,2440
2016-06-09T09:19:14.752Z,2400
2016-06-09T09:20:14.380Z,2464
2016-06-09T09:21:18.055Z,2532
2016-06-09T09:22:14.495Z,2564
2016-06-09T09:23:17.483Z,2624
2016-06-09T09:24:14.392Z,2636
2016-06-09T09:25:14.348Z,2688
2016-06-09T09:26:17.320Z,2744
2016-06-09T09:27:14.542Z,2844
2016-06-09T09:28:17.218Z,2860
2016-06-09T09:29:20.220Z,2952
2016-06-09T09:30:17.160Z,2988
2016-06-09T09:31:14.305Z,2812
2016-06-09T09:32:14.182Z,2684
2016-06-09T09:33:14.200Z,2628
2016-06-09T09:34:14.001Z,2628
2016-06-09T09:35:17.129Z,2624
2016-06-09T09:36:13.820Z,2648
2016-06-09T09:37:16.791Z,2668
2016-06-09T09:38:13.967Z,2700
2016-06-09T09:39:13.735Z,2832
2016-06-09T09:40:13.988Z,3176
2016-06-09T09:41:13.678Z,3548
2016-06-09T09:42:14.229Z,3772
2016-06-09T09:43:13.763Z,3756
2016-06-09T09:44:13.376Z,3704
2016-06-09T09:45:13.645Z,3192
2016-06-09T09:46:13.398Z,2748
2016-06-09T09:47:16.604Z,2648
2016-06-09T09:48:13.293Z,2576
2016-06-09T09:49:13.563Z,2580
2016-06-09T09:50:16.253Z,2436
2016-06-09T09:51:13.242Z,2724
2016-06-09T09:52:16.120Z,2724
2016-06-09T09:53:13.106Z,2544
2016-06-09T09:54:13.015Z,2932
2016-06-09T09:55:13.988Z,3708
2016-06-09T09:56:12.788Z,3552
2016-06-09T09:57:16.102Z,3096
2016-06-09T09:58:16.060Z,3000
2016-06-09T09:59:15.827Z,3000
2016-06-09T10:00:12.816Z,2988
2016-06-09T10:01:12.709Z,2252
2016-06-09T10:02:12.931Z,2760
2016-06-09T10:03:13.246Z,2660
2016-06-09T10:04:12.765Z,2672
2016-06-09T10:05:12.518Z,2780
2016-06-09T10:06:12.802Z,2812
2016-06-09T10:07:12.508Z,3004
2016-06-09T10:08:12.386Z,3048
2016-06-09T10:09:15.547Z,3064
2016-06-09T10:10:12.361Z,3044
2016-06-09T10:11:12.256Z,3296
2016-06-09T10:12:12.243Z,3384
2016-06-09T10:13:13.106Z,2840
2016-06-09T10:14:12.187Z,2812
2016-06-09T10:15:12.127Z,2764
2016-06-09T10:16:12.177Z,2764
2016-06-09T10:17:12.008Z,2796
2016-06-09T10:18:11.996Z,2892
2016-06-09T10:19:11.889Z,3040
2016-06-09T10:20:12.142Z,2924
2016-06-09T10:21:11.881Z,3520
2016-06-09T10:22:12.570Z,3012
2016-06-09T10:23:11.543Z,2964
2016-06-09T10:24:11.843Z,3252
2016-06-09T10:25:11.517Z,2812
2016-06-09T10:26:11.816Z,2868
2016-06-09T10:27:14.617Z,3264
2016-06-09T10:28:11.495Z,3560
2016-06-09T10:29:11.733Z,3584
2016-06-09T10:30:11.720Z,3580
2016-06-09T10:31:11.521Z,3288
2016-06-09T10:32:11.335Z,2908
2016-06-09T10:33:11.729Z,2824
2016-06-09T10:34:14.248Z,2820
2016-06-09T10:35:14.391Z,2908
2016-06-09T10:36:14.536Z,3184
2016-06-09T10:37:14.757Z,3648
2016-06-09T10:38:11.025Z,3244
2016-06-09T10:39:20.653Z,2768
2016-06-09T10:40:14.157Z,2716
2016-06-09T10:41:10.926Z,2676
2016-06-09T10:42:13.898Z,2692
2016-06-09T10:43:11.057Z,2804
2016-06-09T10:44:14.232Z,2904
2016-06-09T10:45:14.235Z,2920
2016-06-09T10:46:10.661Z,2920
2016-06-09T10:47:13.913Z,2852
2016-06-09T10:48:10.619Z,3060
2016-06-09T10:49:10.560Z,3168
2016-06-09T10:50:10.844Z,2872
2016-06-09T10:51:13.660Z,2848
2016-06-09T10:52:19.507Z,2792
2016-06-09T10:53:10.385Z,3024
2016-06-09T10:54:13.450Z,3508
2016-06-09T10:55:10.515Z,3276
2016-06-09T10:56:10.253Z,3412
2016-06-09T10:57:10.381Z,3168
2016-06-09T10:58:10.228Z,3332
2016-06-09T10:59:10.325Z,3340
2016-06-09T11:00:10.422Z,3328
2016-06-09T11:01:27.737Z,3172
2016-06-09T11:02:16.694Z,3104
2016-06-09T11:03:10.180Z,2996
2016-06-09T11:04:12.872Z,3064
2016-06-09T11:05:09.828Z,3188
2016-06-09T11:06:09.689Z,3184
2016-06-09T11:07:10.193Z,3276
2016-06-09T11:08:09.915Z,3272
2016-06-09T11:09:09.699Z,2936
2016-06-09T11:10:09.671Z,3232
2016-06-09T11:11:09.784Z,3148
2016-06-09T11:12:09.755Z,2628
2016-06-09T11:13:09.258Z,3152
2016-06-09T11:14:09.511Z,3132
2016-06-09T11:15:09.374Z,3192
2016-06-09T11:16:09.330Z,3228
2016-06-09T11:17:09.255Z,3292
2016-06-09T11:18:12.242Z,3388
2016-06-09T11:19:09.418Z,3496
2016-06-09T11:20:10.264Z,3808
2016-06-09T11:21:09.815Z,4268
2016-06-09T11:22:09.099Z,4644
2016-06-09T11:23:09.211Z,4852
2016-06-09T11:24:26.808Z,3964
2016-06-09T11:25:08.936Z,3692
2016-06-09T11:26:08.939Z,3592
2016-06-09T11:27:09.348Z,3560
2016-06-09T11:28:12.133Z,3484
2016-06-09T11:29:08.964Z,3468
2016-06-09T11:30:11.718Z,3500
2016-06-09T11:31:08.657Z,3496
2016-06-09T11:32:11.769Z,3488
2016-06-09T11:33:08.586Z,3508
2016-06-09T11:34:11.730Z,3540
2016-06-09T11:35:08.903Z,3572
2016-06-09T11:36:11.845Z,3632
2016-06-09T11:37:09.301Z,3748
2016-06-09T11:38:11.867Z,3864
2016-06-09T11:39:08.495Z,4136
2016-06-09T11:40:08.263Z,4268
2016-06-09T11:41:08.298Z,4208
2016-06-09T11:42:08.425Z,4132
2016-06-09T11:43:08.133Z,4228
2016-06-09T11:44:08.089Z,5088
2016-06-09T11:45:08.170Z,4568
2016-06-09T11:46:11.204Z,4244
2016-06-09T11:47:07.957Z,4236
2016-06-09T11:48:11.132Z,4740
2016-06-09T11:49:07.993Z,5512
2016-06-09T11:50:10.825Z,5772
2016-06-09T11:51:08.032Z,4740
2016-06-09T11:52:07.972Z,3408
2016-06-09T11:53:07.944Z,3824
2016-06-09T11:54:07.760Z,3960
2016-06-09T11:55:07.450Z,4308
2016-06-09T11:56:07.782Z,4192
2016-06-09T11:57:07.565Z,4128
2016-06-09T11:58:07.460Z,4132
2016-06-09T11:59:07.416Z,4280
2016-06-09T12:00:07.418Z,4804
2016-06-09T12:01:07.313Z,5684
2016-06-09T12:02:10.472Z,6264
2016-06-09T12:03:07.225Z,6044
2016-06-09T12:04:07.212Z,5612
2016-06-09T12:05:10.418Z,5332
2016-06-09T12:06:07.062Z,5248
2016-06-09T12:07:11.252Z,5032
2016-06-09T12:08:10.521Z,5008
2016-06-09T12:09:06.977Z,4788
2016-06-09T12:10:07.199Z,5024
2016-06-09T12:11:09.890Z,5220
2016-06-09T12:12:10.533Z,5152
2016-06-09T12:13:06.708Z,6136
2016-06-09T12:14:12.945Z,6664
2016-06-09T12:15:06.715Z,5636
2016-06-09T12:16:09.530Z,5172
2016-06-09T12:17:09.627Z,5000
2016-06-09T12:18:06.786Z,4060
2016-06-09T12:19:06.743Z,4600
2016-06-09T12:20:09.527Z,4464
2016-06-09T12:21:07.014Z,4416
2016-06-09T12:22:07.236Z,4548
2016-06-09T12:23:06.364Z,4552
2016-06-09T12:24:06.337Z,4584
2016-06-09T12:25:06.261Z,4908
2016-06-09T12:26:09.233Z,5160
2016-06-09T12:27:06.189Z,5520
2016-06-09T12:28:06.348Z,6756
2016-06-09T12:29:06.180Z,6688
2016-06-09T12:30:06.073Z,6592
2016-06-09T12:31:06.061Z,5216
2016-06-09T12:32:05.986Z,4880
2016-06-09T12:33:06.145Z,5816
2016-06-09T12:34:05.804Z,5920
2016-06-09T12:35:08.917Z,5476
2016-06-09T12:36:09.592Z,5644
2016-06-09T12:37:06.111Z,5204
2016-06-09T12:38:05.958Z,4768
2016-06-09T12:39:05.710Z,4720
2016-06-09T12:40:05.494Z,4864
2016-06-09T12:41:05.607Z,5036
2016-06-09T12:42:05.595Z,5120
2016-06-09T12:43:05.723Z,5088
2016-06-09T12:44:05.648Z,5240
2016-06-09T12:45:05.416Z,5548
2016-06-09T12:46:05.435Z,5944
2016-06-09T12:47:05.313Z,6256
2016-06-09T12:48:05.394Z,7040
2016-06-09T12:49:05.256Z,7496
2016-06-09T12:50:05.339Z,7388
2016-06-09T12:51:06.310Z,6544
2016-06-09T12:52:05.484Z,5220
2016-06-09T12:53:08.284Z,4356
2016-06-09T12:54:08.037Z,5060
2016-06-09T12:55:05.182Z,5192
2016-06-09T12:56:04.934Z,5312
2016-06-09T12:57:05.125Z,5412
2016-06-09T12:58:08.269Z,5412
2016-06-09T12:59:04.834Z,5100
2016-06-09T13:00:04.775Z,5676
2016-06-09T13:01:04.778Z,5592
2016-06-09T13:02:04.406Z,5856
2016-06-09T13:03:04.612Z,6620
2016-06-09T13:04:04.599Z,7316
2016-06-09T13:05:04.760Z,6992
2016-06-09T13:06:04.403Z,6432
2016-06-09T13:07:08.062Z,5792
2016-06-09T13:08:04.425Z,5496
2016-06-09T13:09:04.427Z,5720
2016-06-09T13:10:04.196Z,5588
2016-06-09T13:11:04.465Z,5796
2016-06-09T13:12:04.296Z,5692
2016-06-09T13:13:04.409Z,5740
2016-06-09T13:14:07.162Z,5880
2016-06-09T13:15:13.197Z,5780
2016-06-09T13:16:04.277Z,5692
2016-06-09T13:17:07.296Z,5828
2016-06-09T13:18:03.987Z,5824
2016-06-09T13:19:03.974Z,5640
2016-06-09T13:20:07.556Z,5612
2016-06-09T13:21:07.526Z,5644
2016-06-09T13:22:03.968Z,5644
2016-06-09T13:23:04.220Z,6044
2016-06-09T13:24:07.317Z,7004
2016-06-09T13:25:03.930Z,8100
2016-06-09T13:26:03.667Z,8560
2016-06-09T13:27:03.608Z,8260
2016-06-09T13:28:03.595Z,8872
2016-06-09T13:29:03.521Z,8052
2016-06-09T13:30:06.508Z,7240
2016-06-09T13:31:03.354Z,6440
2016-06-09T13:32:03.842Z,6724
2016-06-09T13:33:15.423Z,6140
2016-06-09T13:34:03.536Z,6244
2016-06-09T13:35:06.617Z,6312
2016-06-09T13:36:03.417Z,5684
2016-06-09T13:37:03.451Z,6256
2016-06-09T13:38:03.751Z,7488
2016-06-09T13:39:12.129Z,8524
2016-06-09T13:40:03.148Z,9352